sensor_id;sensor_type;location;lat;lon;timestamp;P1;durP1;ratioP1;P2;durP2;ratioP2
75209;SDS011;63796;53.136;14.882;2022-12-05T00:01:14;60.05;;;20.37;;
75209;SDS011;63796;53.136;14.882;2022-12-05T00:04:06;66.60;;;21.00;;
75209;SDS011;63796;53.136;14.882;2022-12-05T00:06:37;64.47;;;20.68;;
75209;SDS011;63796;53.136;14.882;2022-12-05T00:09:07;58.28;;;19.80;;
75209;SDS011;63796;53.136;14.882;2022-12-05T00:11:36;61.50;;;19.83;;
75209;SDS011;63796;53.136;14.882;2022-12-05T00:14:06;62.23;;;20.75;;
75209;SDS011;63796;53.136;14.882;2022-12-05T00:16:35;60.73;;;19.85;;
75209;SDS011;63796;53.136;14.882;2022-12-05T00:19:05;64.70;;;21.00;;
75209;SDS011;63796;53.136;14.882;2022-12-05T00:21:34;64.47;;;19.57;;
75209;SDS011;63796;53.136;14.882;2022-12-05T00:24:03;56.77;;;19.87;;
75209;SDS011;63796;53.136;14.882;2022-12-05T00:26:32;61.08;;;20.97;;
75209;SDS011;63796;53.136;14.882;2022-12-05T00:29:00;61.02;;;20.00;;
75209;SDS011;63796;53.136;14.882;2022-12-05T00:31:27;55.60;;;19.50;;
75209;SDS011;63796;53.136;14.882;2022-12-05T00:33:54;56.30;;;19.77;;
75209;SDS011;63796;53.136;14.882;2022-12-05T00:36:24;62.83;;;20.33;;
75209;SDS011;63796;53.136;14.882;2022-12-05T00:38:53;63.65;;;20.70;;
75209;SDS011;63796;53.136;14.882;2022-12-05T00:41:22;62.93;;;20.50;;
75209;SDS011;63796;53.136;14.882;2022-12-05T00:43:51;64.45;;;21.37;;
75209;SDS011;63796;53.136;14.882;2022-12-05T00:46:23;59.10;;;19.42;;
75209;SDS011;63796;53.136;14.882;2022-12-05T00:48:52;59.10;;;19.10;;
75209;SDS011;63796;53.136;14.882;2022-12-05T00:51:22;57.90;;;19.55;;
75209;SDS011;63796;53.136;14.882;2022-12-05T00:53:57;55.03;;;20.90;;
75209;SDS011;63796;53.136;14.882;2022-12-05T00:56:26;65.65;;;20.00;;
75209;SDS011;63796;53.136;14.882;2022-12-05T00:58:55;59.75;;;19.62;;
75209;SDS011;63796;53.136;14.882;2022-12-05T01:01:24;61.87;;;18.77;;
75209;SDS011;63796;53.136;14.882;2022-12-05T01:03:59;61.10;;;19.90;;
75209;SDS011;63796;53.136;14.882;2022-12-05T01:06:29;59.77;;;19.70;;
75209;SDS011;63796;53.136;14.882;2022-12-05T01:08:56;58.73;;;20.15;;
75209;SDS011;63796;53.136;14.882;2022-12-05T01:11:24;57.15;;;19.87;;
75209;SDS011;63796;53.136;14.882;2022-12-05T01:13:52;54.30;;;18.40;;
75209;SDS011;63796;53.136;14.882;2022-12-05T01:16:26;62.40;;;19.23;;
75209;SDS011;63796;53.136;14.882;2022-12-05T01:18:58;59.00;;;19.92;;
75209;SDS011;63796;53.136;14.882;2022-12-05T01:21:28;58.65;;;20.62;;
75209;SDS011;63796;53.136;14.882;2022-12-05T01:23:56;52.73;;;18.00;;
75209;SDS011;63796;53.136;14.882;2022-12-05T01:26:23;61.67;;;20.20;;
75209;SDS011;63796;53.136;14.882;2022-12-05T01:28:50;60.23;;;19.42;;
75209;SDS011;63796;53.136;14.882;2022-12-05T01:33:58;47.98;;;17.32;;
75209;SDS011;63796;53.136;14.882;2022-12-05T01:36:28;57.38;;;16.97;;
75209;SDS011;63796;53.136;14.882;2022-12-05T01:38:56;56.77;;;20.93;;
75209;SDS011;63796;53.136;14.882;2022-12-05T01:41:24;56.92;;;19.35;;
75209;SDS011;63796;53.136;14.882;2022-12-05T01:46:44;53.45;;;17.92;;
75209;SDS011;63796;53.136;14.882;2022-12-05T01:51:54;52.73;;;17.30;;
75209;SDS011;63796;53.136;14.882;2022-12-05T01:54:25;54.48;;;18.92;;
75209;SDS011;63796;53.136;14.882;2022-12-05T01:56:53;55.48;;;18.60;;
75209;SDS011;63796;53.136;14.882;2022-12-05T01:59:27;50.17;;;17.73;;
75209;SDS011;63796;53.136;14.882;2022-12-05T02:01:58;54.58;;;17.85;;
75209;SDS011;63796;53.136;14.882;2022-12-05T02:04:26;58.50;;;17.43;;
75209;SDS011;63796;53.136;14.882;2022-12-05T02:06:53;54.67;;;17.40;;
75209;SDS011;63796;53.136;14.882;2022-12-05T02:09:21;51.48;;;17.87;;
75209;SDS011;63796;53.136;14.882;2022-12-05T02:11:50;51.23;;;18.32;;
75209;SDS011;63796;53.136;14.882;2022-12-05T02:14:39;48.92;;;16.95;;
75209;SDS011;63796;53.136;14.882;2022-12-05T02:17:17;52.60;;;17.67;;
75209;SDS011;63796;53.136;14.882;2022-12-05T02:31:17;49.97;;;17.17;;
75209;SDS011;63796;53.136;14.882;2022-12-05T02:34:09;55.65;;;18.62;;
75209;SDS011;63796;53.136;14.882;2022-12-05T02:36:48;50.98;;;18.25;;
75209;SDS011;63796;53.136;14.882;2022-12-05T02:42:35;57.45;;;19.17;;
75209;SDS011;63796;53.136;14.882;2022-12-05T02:45:11;46.23;;;17.10;;
75209;SDS011;63796;53.136;14.882;2022-12-05T02:47:45;59.40;;;18.17;;
75209;SDS011;63796;53.136;14.882;2022-12-05T02:50:19;53.70;;;18.25;;
75209;SDS011;63796;53.136;14.882;2022-12-05T02:52:50;53.05;;;17.75;;
75209;SDS011;63796;53.136;14.882;2022-12-05T02:55:22;53.78;;;17.87;;
75209;SDS011;63796;53.136;14.882;2022-12-05T02:57:54;53.33;;;17.60;;
75209;SDS011;63796;53.136;14.882;2022-12-05T03:00:25;53.80;;;17.70;;
75209;SDS011;63796;53.136;14.882;2022-12-05T03:02:52;56.48;;;19.20;;
75209;SDS011;63796;53.136;14.882;2022-12-05T03:05:29;49.83;;;16.10;;
75209;SDS011;63796;53.136;14.882;2022-12-05T03:08:12;51.68;;;17.52;;
75209;SDS011;63796;53.136;14.882;2022-12-05T03:10:44;54.50;;;17.77;;
75209;SDS011;63796;53.136;14.882;2022-12-05T03:13:15;58.23;;;17.82;;
75209;SDS011;63796;53.136;14.882;2022-12-05T03:15:48;48.33;;;17.17;;
75209;SDS011;63796;53.136;14.882;2022-12-05T03:18:25;53.87;;;18.02;;
75209;SDS011;63796;53.136;14.882;2022-12-05T03:20:59;53.85;;;18.32;;
75209;SDS011;63796;53.136;14.882;2022-12-05T03:23:48;53.43;;;18.90;;
75209;SDS011;63796;53.136;14.882;2022-12-05T03:28:59;50.92;;;18.23;;
75209;SDS011;63796;53.136;14.882;2022-12-05T03:31:54;47.40;;;17.37;;
75209;SDS011;63796;53.136;14.882;2022-12-05T03:37:46;54.07;;;17.83;;
75209;SDS011;63796;53.136;14.882;2022-12-05T03:40:34;50.40;;;18.30;;
75209;SDS011;63796;53.136;14.882;2022-12-05T03:43:15;50.73;;;18.50;;
75209;SDS011;63796;53.136;14.882;2022-12-05T03:45:58;55.12;;;17.95;;
75209;SDS011;63796;53.136;14.882;2022-12-05T03:48:46;47.95;;;17.35;;
75209;SDS011;63796;53.136;14.882;2022-12-05T03:51:32;45.60;;;16.60;;
75209;SDS011;63796;53.136;14.882;2022-12-05T03:56:58;48.05;;;17.50;;
75209;SDS011;63796;53.136;14.882;2022-12-05T04:02:19;51.30;;;17.90;;
75209;SDS011;63796;53.136;14.882;2022-12-05T04:05:23;45.83;;;17.37;;
75209;SDS011;63796;53.136;14.882;2022-12-05T04:07:34;47.98;;;16.95;;
75209;SDS011;63796;53.136;14.882;2022-12-05T04:10:09;48.13;;;18.42;;
75209;SDS011;63796;53.136;14.882;2022-12-05T04:12:40;43.33;;;17.35;;
75209;SDS011;63796;53.136;14.882;2022-12-05T04:15:14;48.38;;;17.62;;
75209;SDS011;63796;53.136;14.882;2022-12-05T04:17:51;49.63;;;17.83;;
75209;SDS011;63796;53.136;14.882;2022-12-05T04:20:30;51.65;;;18.12;;
75209;SDS011;63796;53.136;14.882;2022-12-05T04:23:24;45.38;;;16.85;;
75209;SDS011;63796;53.136;14.882;2022-12-05T04:28:33;46.50;;;18.00;;
75209;SDS011;63796;53.136;14.882;2022-12-05T04:31:24;44.00;;;17.43;;
75209;SDS011;63796;53.136;14.882;2022-12-05T04:33:52;45.67;;;16.87;;
75209;SDS011;63796;53.136;14.882;2022-12-05T04:39:19;47.73;;;16.00;;
75209;SDS011;63796;53.136;14.882;2022-12-05T04:41:53;40.58;;;16.07;;
75209;SDS011;63796;53.136;14.882;2022-12-05T04:44:28;48.97;;;17.83;;
75209;SDS011;63796;53.136;14.882;2022-12-05T04:47:00;46.92;;;16.87;;
75209;SDS011;63796;53.136;14.882;2022-12-05T04:49:32;44.55;;;17.17;;
75209;SDS011;63796;53.136;14.882;2022-12-05T04:52:03;50.12;;;16.67;;
75209;SDS011;63796;53.136;14.882;2022-12-05T04:54:35;43.42;;;16.23;;
75209;SDS011;63796;53.136;14.882;2022-12-05T04:57:14;47.57;;;16.93;;
75209;SDS011;63796;53.136;14.882;2022-12-05T04:59:46;49.75;;;16.73;;
75209;SDS011;63796;53.136;14.882;2022-12-05T05:02:15;45.98;;;17.77;;
75209;SDS011;63796;53.136;14.882;2022-12-05T05:04:46;50.65;;;16.97;;
75209;SDS011;63796;53.136;14.882;2022-12-05T05:07:17;42.95;;;15.93;;
75209;SDS011;63796;53.136;14.882;2022-12-05T05:09:45;47.30;;;17.10;;
75209;SDS011;63796;53.136;14.882;2022-12-05T05:12:12;42.38;;;16.20;;
75209;SDS011;63796;53.136;14.882;2022-12-05T05:14:38;46.15;;;17.27;;
75209;SDS011;63796;53.136;14.882;2022-12-05T05:17:05;44.15;;;15.85;;
75209;SDS011;63796;53.136;14.882;2022-12-05T05:19:32;46.42;;;17.07;;
75209;SDS011;63796;53.136;14.882;2022-12-05T05:21:59;47.47;;;17.23;;
75209;SDS011;63796;53.136;14.882;2022-12-05T05:24:26;43.73;;;16.90;;
75209;SDS011;63796;53.136;14.882;2022-12-05T05:26:53;42.95;;;16.10;;
75209;SDS011;63796;53.136;14.882;2022-12-05T05:29:20;44.88;;;16.32;;
75209;SDS011;63796;53.136;14.882;2022-12-05T05:31:47;45.75;;;15.90;;
75209;SDS011;63796;53.136;14.882;2022-12-05T05:34:14;44.73;;;17.07;;
75209;SDS011;63796;53.136;14.882;2022-12-05T05:36:41;45.30;;;16.85;;
75209;SDS011;63796;53.136;14.882;2022-12-05T05:39:10;50.20;;;17.85;;
75209;SDS011;63796;53.136;14.882;2022-12-05T05:41:39;45.58;;;17.00;;
75209;SDS011;63796;53.136;14.882;2022-12-05T05:44:06;43.05;;;16.67;;
75209;SDS011;63796;53.136;14.882;2022-12-05T05:46:34;43.93;;;15.67;;
75209;SDS011;63796;53.136;14.882;2022-12-05T05:49:02;41.68;;;15.68;;
75209;SDS011;63796;53.136;14.882;2022-12-05T05:51:29;47.53;;;16.57;;
75209;SDS011;63796;53.136;14.882;2022-12-05T05:53:57;43.83;;;15.95;;
75209;SDS011;63796;53.136;14.882;2022-12-05T05:56:26;46.65;;;16.40;;
75209;SDS011;63796;53.136;14.882;2022-12-05T05:58:55;44.33;;;15.27;;
75209;SDS011;63796;53.136;14.882;2022-12-05T06:01:25;43.90;;;16.52;;
75209;SDS011;63796;53.136;14.882;2022-12-05T06:03:54;39.92;;;14.93;;
75209;SDS011;63796;53.136;14.882;2022-12-05T06:06:21;43.85;;;15.00;;
75209;SDS011;63796;53.136;14.882;2022-12-05T06:08:48;45.08;;;16.02;;
75209;SDS011;63796;53.136;14.882;2022-12-05T06:11:17;44.50;;;15.93;;
75209;SDS011;63796;53.136;14.882;2022-12-05T06:13:46;44.67;;;16.97;;
75209;SDS011;63796;53.136;14.882;2022-12-05T06:16:14;36.90;;;14.85;;
75209;SDS011;63796;53.136;14.882;2022-12-05T06:18:43;42.50;;;14.35;;
75209;SDS011;63796;53.136;14.882;2022-12-05T06:21:10;40.23;;;15.23;;
75209;SDS011;63796;53.136;14.882;2022-12-05T06:23:37;41.03;;;14.80;;
75209;SDS011;63796;53.136;14.882;2022-12-05T06:26:05;37.83;;;14.50;;
75209;SDS011;63796;53.136;14.882;2022-12-05T06:28:36;37.40;;;14.25;;
75209;SDS011;63796;53.136;14.882;2022-12-05T06:31:11;35.90;;;13.53;;
75209;SDS011;63796;53.136;14.882;2022-12-05T06:33:41;32.33;;;13.08;;
75209;SDS011;63796;53.136;14.882;2022-12-05T06:36:13;33.27;;;12.60;;
75209;SDS011;63796;53.136;14.882;2022-12-05T06:38:42;34.35;;;13.48;;
75209;SDS011;63796;53.136;14.882;2022-12-05T06:41:10;34.48;;;13.20;;
75209;SDS011;63796;53.136;14.882;2022-12-05T06:43:42;38.25;;;14.15;;
75209;SDS011;63796;53.136;14.882;2022-12-05T06:46:10;31.60;;;12.65;;
75209;SDS011;63796;53.136;14.882;2022-12-05T06:48:39;29.73;;;11.47;;
75209;SDS011;63796;53.136;14.882;2022-12-05T06:51:08;34.65;;;12.45;;
75209;SDS011;63796;53.136;14.882;2022-12-05T06:53:41;32.78;;;12.50;;
75209;SDS011;63796;53.136;14.882;2022-12-05T06:56:09;26.05;;;10.78;;
75209;SDS011;63796;53.136;14.882;2022-12-05T06:58:40;28.95;;;11.85;;
75209;SDS011;63796;53.136;14.882;2022-12-05T07:01:10;26.03;;;11.00;;
75209;SDS011;63796;53.136;14.882;2022-12-05T07:03:57;32.83;;;12.25;;
75209;SDS011;63796;53.136;14.882;2022-12-05T07:06:25;29.57;;;12.90;;
75209;SDS011;63796;53.136;14.882;2022-12-05T07:08:53;25.23;;;10.78;;
75209;SDS011;63796;53.136;14.882;2022-12-05T07:11:22;24.25;;;10.93;;
75209;SDS011;63796;53.136;14.882;2022-12-05T07:13:48;24.50;;;10.57;;
75209;SDS011;63796;53.136;14.882;2022-12-05T07:16:16;27.32;;;10.30;;
75209;SDS011;63796;53.136;14.882;2022-12-05T07:18:43;27.82;;;11.95;;
75209;SDS011;63796;53.136;14.882;2022-12-05T07:21:11;30.95;;;11.83;;
75209;SDS011;63796;53.136;14.882;2022-12-05T07:23:40;26.65;;;10.70;;
75209;SDS011;63796;53.136;14.882;2022-12-05T07:26:10;26.83;;;11.03;;
75209;SDS011;63796;53.136;14.882;2022-12-05T07:28:40;29.30;;;10.40;;
75209;SDS011;63796;53.136;14.882;2022-12-05T07:31:08;25.88;;;10.28;;
75209;SDS011;63796;53.136;14.882;2022-12-05T07:33:37;25.55;;;10.15;;
75209;SDS011;63796;53.136;14.882;2022-12-05T07:36:05;24.57;;;10.05;;
75209;SDS011;63796;53.136;14.882;2022-12-05T07:38:36;20.60;;;9.90;;
75209;SDS011;63796;53.136;14.882;2022-12-05T07:41:09;25.43;;;10.32;;
75209;SDS011;63796;53.136;14.882;2022-12-05T07:43:38;24.85;;;9.68;;
75209;SDS011;63796;53.136;14.882;2022-12-05T07:46:07;21.77;;;8.78;;
75209;SDS011;63796;53.136;14.882;2022-12-05T07:48:38;22.62;;;9.13;;
75209;SDS011;63796;53.136;14.882;2022-12-05T07:51:06;20.33;;;8.70;;
75209;SDS011;63796;53.136;14.882;2022-12-05T07:53:34;18.05;;;8.58;;
75209;SDS011;63796;53.136;14.882;2022-12-05T07:56:02;21.37;;;9.13;;
75209;SDS011;63796;53.136;14.882;2022-12-05T07:58:32;18.37;;;7.72;;
75209;SDS011;63796;53.136;14.882;2022-12-05T08:01:06;16.75;;;7.58;;
75209;SDS011;63796;53.136;14.882;2022-12-05T08:03:36;19.17;;;7.63;;
75209;SDS011;63796;53.136;14.882;2022-12-05T08:06:04;17.75;;;8.08;;
75209;SDS011;63796;53.136;14.882;2022-12-05T08:08:34;19.85;;;7.78;;
75209;SDS011;63796;53.136;14.882;2022-12-05T08:11:07;19.75;;;7.70;;
75209;SDS011;63796;53.136;14.882;2022-12-05T08:13:34;19.82;;;7.78;;
75209;SDS011;63796;53.136;14.882;2022-12-05T08:16:02;17.00;;;7.97;;
75209;SDS011;63796;53.136;14.882;2022-12-05T08:18:31;18.07;;;8.35;;
75209;SDS011;63796;53.136;14.882;2022-12-05T08:21:05;17.95;;;7.80;;
75209;SDS011;63796;53.136;14.882;2022-12-05T08:23:36;15.40;;;7.25;;
75209;SDS011;63796;53.136;14.882;2022-12-05T08:26:05;17.23;;;8.13;;
75209;SDS011;63796;53.136;14.882;2022-12-05T08:28:36;14.37;;;6.70;;
75209;SDS011;63796;53.136;14.882;2022-12-05T08:31:08;14.60;;;6.67;;
75209;SDS011;63796;53.136;14.882;2022-12-05T08:33:38;13.58;;;6.58;;
75209;SDS011;63796;53.136;14.882;2022-12-05T08:36:06;16.52;;;6.50;;
75209;SDS011;63796;53.136;14.882;2022-12-05T08:38:36;14.18;;;6.67;;
75209;SDS011;63796;53.136;14.882;2022-12-05T08:41:04;13.70;;;6.13;;
75209;SDS011;63796;53.136;14.882;2022-12-05T08:43:34;14.65;;;6.50;;
75209;SDS011;63796;53.136;14.882;2022-12-05T08:46:02;12.82;;;6.10;;
75209;SDS011;63796;53.136;14.882;2022-12-05T08:48:30;14.30;;;6.37;;
75209;SDS011;63796;53.136;14.882;2022-12-05T08:50:58;12.80;;;6.53;;
75209;SDS011;63796;53.136;14.882;2022-12-05T08:53:34;13.20;;;5.93;;
75209;SDS011;63796;53.136;14.882;2022-12-05T08:56:05;11.18;;;5.83;;
75209;SDS011;63796;53.136;14.882;2022-12-05T08:58:35;13.60;;;6.35;;
75209;SDS011;63796;53.136;14.882;2022-12-05T09:01:07;15.70;;;6.90;;
75209;SDS011;63796;53.136;14.882;2022-12-05T09:03:33;18.67;;;6.95;;
75209;SDS011;63796;53.136;14.882;2022-12-05T09:06:12;14.57;;;7.40;;
75209;SDS011;63796;53.136;14.882;2022-12-05T09:08:43;13.13;;;7.12;;
75209;SDS011;63796;53.136;14.882;2022-12-05T09:11:14;17.48;;;8.08;;
75209;SDS011;63796;53.136;14.882;2022-12-05T09:13:45;16.73;;;7.85;;
75209;SDS011;63796;53.136;14.882;2022-12-05T09:16:15;16.30;;;7.50;;
75209;SDS011;63796;53.136;14.882;2022-12-05T09:18:45;15.53;;;7.17;;
75209;SDS011;63796;53.136;14.882;2022-12-05T09:21:15;19.70;;;7.87;;
75209;SDS011;63796;53.136;14.882;2022-12-05T09:23:48;19.52;;;8.38;;
75209;SDS011;63796;53.136;14.882;2022-12-05T09:26:18;20.15;;;9.68;;
75209;SDS011;63796;53.136;14.882;2022-12-05T09:28:48;19.20;;;9.48;;
75209;SDS011;63796;53.136;14.882;2022-12-05T09:31:16;19.57;;;8.20;;
75209;SDS011;63796;53.136;14.882;2022-12-05T09:33:46;18.82;;;7.92;;
75209;SDS011;63796;53.136;14.882;2022-12-05T09:36:16;19.98;;;8.35;;
75209;SDS011;63796;53.136;14.882;2022-12-05T09:38:47;21.15;;;8.38;;
75209;SDS011;63796;53.136;14.882;2022-12-05T09:47:16;17.65;;;8.25;;
75209;SDS011;63796;53.136;14.882;2022-12-05T09:52:49;17.07;;;7.78;;
75209;SDS011;63796;53.136;14.882;2022-12-05T09:55:34;15.40;;;8.30;;
75209;SDS011;63796;53.136;14.882;2022-12-05T10:10:02;13.65;;;6.78;;
75209;SDS011;63796;53.136;14.882;2022-12-05T10:13:01;15.80;;;7.00;;
75209;SDS011;63796;53.136;14.882;2022-12-05T10:15:39;16.52;;;7.10;;
75209;SDS011;63796;53.136;14.882;2022-12-05T10:24:01;14.75;;;6.72;;
75209;SDS011;63796;53.136;14.882;2022-12-05T10:26:33;14.80;;;6.70;;
75209;SDS011;63796;53.136;14.882;2022-12-05T10:32:28;13.22;;;7.03;;
75209;SDS011;63796;53.136;14.882;2022-12-05T10:34:44;15.20;;;7.33;;
75209;SDS011;63796;53.136;14.882;2022-12-05T10:37:18;15.28;;;7.47;;
75209;SDS011;63796;53.136;14.882;2022-12-05T10:39:48;13.67;;;6.70;;
75209;SDS011;63796;53.136;14.882;2022-12-05T10:42:17;13.38;;;6.80;;
75209;SDS011;63796;53.136;14.882;2022-12-05T10:44:49;13.62;;;6.92;;
75209;SDS011;63796;53.136;14.882;2022-12-05T10:47:20;13.03;;;7.00;;
75209;SDS011;63796;53.136;14.882;2022-12-05T10:49:47;12.58;;;6.80;;
75209;SDS011;63796;53.136;14.882;2022-12-05T10:52:15;15.43;;;8.20;;
75209;SDS011;63796;53.136;14.882;2022-12-05T10:54:48;14.45;;;6.72;;
75209;SDS011;63796;53.136;14.882;2022-12-05T10:57:22;13.90;;;7.33;;
75209;SDS011;63796;53.136;14.882;2022-12-05T10:59:52;15.03;;;7.17;;
75209;SDS011;63796;53.136;14.882;2022-12-05T11:02:27;14.85;;;6.80;;
75209;SDS011;63796;53.136;14.882;2022-12-05T11:04:57;16.37;;;7.00;;
75209;SDS011;63796;53.136;14.882;2022-12-05T11:07:31;15.30;;;7.37;;
75209;SDS011;63796;53.136;14.882;2022-12-05T11:10:04;14.68;;;7.12;;
75209;SDS011;63796;53.136;14.882;2022-12-05T11:12:39;15.68;;;7.05;;
75209;SDS011;63796;53.136;14.882;2022-12-05T11:17:49;16.73;;;7.67;;
75209;SDS011;63796;53.136;14.882;2022-12-05T11:22:52;18.50;;;7.62;;
75209;SDS011;63796;53.136;14.882;2022-12-05T11:30:56;19.10;;;8.37;;
75209;SDS011;63796;53.136;14.882;2022-12-05T11:33:41;18.17;;;8.93;;
75209;SDS011;63796;53.136;14.882;2022-12-05T11:36:12;20.00;;;8.88;;
75209;SDS011;63796;53.136;14.882;2022-12-05T11:38:51;19.60;;;8.40;;
75209;SDS011;63796;53.136;14.882;2022-12-05T11:44:10;19.67;;;9.20;;
75209;SDS011;63796;53.136;14.882;2022-12-05T11:58:27;22.77;;;10.00;;
75209;SDS011;63796;53.136;14.882;2022-12-05T12:01:18;22.95;;;10.88;;
75209;SDS011;63796;53.136;14.882;2022-12-05T12:03:57;22.20;;;10.85;;
75209;SDS011;63796;53.136;14.882;2022-12-05T12:06:42;19.32;;;9.20;;
75209;SDS011;63796;53.136;14.882;2022-12-05T12:40:46;18.87;;;8.87;;
75209;SDS011;63796;53.136;14.882;2022-12-05T12:46:42;21.68;;;9.13;;
75209;SDS011;63796;53.136;14.882;2022-12-05T12:52:25;20.40;;;9.25;;
75209;SDS011;63796;53.136;14.882;2022-12-05T13:03:40;20.40;;;10.18;;
75209;SDS011;63796;53.136;14.882;2022-12-05T13:06:18;22.80;;;11.05;;
75209;SDS011;63796;53.136;14.882;2022-12-05T13:08:56;24.13;;;10.20;;
75209;SDS011;63796;53.136;14.882;2022-12-05T13:11:28;23.95;;;10.90;;
75209;SDS011;63796;53.136;14.882;2022-12-05T13:13:59;22.10;;;10.50;;
75209;SDS011;63796;53.136;14.882;2022-12-05T13:16:32;23.60;;;10.72;;
75209;SDS011;63796;53.136;14.882;2022-12-05T13:19:05;22.30;;;11.08;;
75209;SDS011;63796;53.136;14.882;2022-12-05T13:21:41;24.10;;;11.37;;
75209;SDS011;63796;53.136;14.882;2022-12-05T13:24:09;26.07;;;10.50;;
75209;SDS011;63796;53.136;14.882;2022-12-05T13:26:38;30.25;;;11.90;;
75209;SDS011;63796;53.136;14.882;2022-12-05T13:29:24;26.37;;;12.00;;
75209;SDS011;63796;53.136;14.882;2022-12-05T13:31:54;26.25;;;12.45;;
75209;SDS011;63796;53.136;14.882;2022-12-05T13:37:24;30.52;;;12.37;;
75209;SDS011;63796;53.136;14.882;2022-12-05T13:40:56;25.52;;;11.78;;
75209;SDS011;63796;53.136;14.882;2022-12-05T13:43:19;28.27;;;11.78;;
75209;SDS011;63796;53.136;14.882;2022-12-05T13:46:08;30.32;;;12.23;;
75209;SDS011;63796;53.136;14.882;2022-12-05T13:48:40;27.63;;;12.43;;
75209;SDS011;63796;53.136;14.882;2022-12-05T13:54:02;26.65;;;11.95;;
75209;SDS011;63796;53.136;14.882;2022-12-05T14:07:53;27.37;;;11.57;;
75209;SDS011;63796;53.136;14.882;2022-12-05T14:12:58;34.08;;;14.33;;
75209;SDS011;63796;53.136;14.882;2022-12-05T14:15:44;29.47;;;12.40;;
75209;SDS011;63796;53.136;14.882;2022-12-05T14:18:16;27.55;;;11.93;;
75209;SDS011;63796;53.136;14.882;2022-12-05T14:24:04;56.88;;;21.48;;
75209;SDS011;63796;53.136;14.882;2022-12-05T14:29:38;33.37;;;13.90;;
75209;SDS011;63796;53.136;14.882;2022-12-05T14:32:27;23.95;;;12.20;;
75209;SDS011;63796;53.136;14.882;2022-12-05T14:35:11;27.05;;;12.15;;
75209;SDS011;63796;53.136;14.882;2022-12-05T14:38:00;30.37;;;13.75;;
75209;SDS011;63796;53.136;14.882;2022-12-05T14:40:36;26.65;;;11.95;;
75209;SDS011;63796;53.136;14.882;2022-12-05T14:46:00;21.97;;;10.80;;
75209;SDS011;63796;53.136;14.882;2022-12-05T14:48:34;26.57;;;12.28;;
75209;SDS011;63796;53.136;14.882;2022-12-05T14:54:05;29.95;;;13.55;;
75209;SDS011;63796;53.136;14.882;2022-12-05T14:56:42;30.07;;;13.57;;
75209;SDS011;63796;53.136;14.882;2022-12-05T14:59:21;25.35;;;11.68;;
75209;SDS011;63796;53.136;14.882;2022-12-05T15:02:10;34.92;;;13.65;;
75209;SDS011;63796;53.136;14.882;2022-12-05T15:04:41;26.55;;;12.45;;
75209;SDS011;63796;53.136;14.882;2022-12-05T15:07:26;27.98;;;12.40;;
75209;SDS011;63796;53.136;14.882;2022-12-05T15:10:00;29.07;;;12.07;;
75209;SDS011;63796;53.136;14.882;2022-12-05T15:12:37;29.37;;;12.47;;
75209;SDS011;63796;53.136;14.882;2022-12-05T15:21:17;25.75;;;11.08;;
75209;SDS011;63796;53.136;14.882;2022-12-05T15:23:55;32.57;;;14.07;;
75209;SDS011;63796;53.136;14.882;2022-12-05T15:29:22;29.48;;;13.30;;
75209;SDS011;63796;53.136;14.882;2022-12-05T15:31:52;30.82;;;13.38;;
75209;SDS011;63796;53.136;14.882;2022-12-05T15:34:35;35.10;;;14.05;;
75209;SDS011;63796;53.136;14.882;2022-12-05T15:40:00;29.57;;;14.10;;
75209;SDS011;63796;53.136;14.882;2022-12-05T15:47:53;32.83;;;13.88;;
75209;SDS011;63796;53.136;14.882;2022-12-05T15:50:37;32.37;;;14.23;;
75209;SDS011;63796;53.136;14.882;2022-12-05T15:53:19;36.55;;;14.40;;
75209;SDS011;63796;53.136;14.882;2022-12-05T15:56:05;32.10;;;15.20;;
75209;SDS011;63796;53.136;14.882;2022-12-05T15:58:41;33.35;;;14.45;;
75209;SDS011;63796;53.136;14.882;2022-12-05T16:01:18;35.20;;;15.83;;
75209;SDS011;63796;53.136;14.882;2022-12-05T16:03:58;34.13;;;15.27;;
75209;SDS011;63796;53.136;14.882;2022-12-05T16:06:51;36.53;;;15.35;;
75209;SDS011;63796;53.136;14.882;2022-12-05T16:09:27;38.17;;;13.48;;
75209;SDS011;63796;53.136;14.882;2022-12-05T16:11:53;32.88;;;14.83;;
75209;SDS011;63796;53.136;14.882;2022-12-05T16:14:31;35.50;;;15.88;;
75209;SDS011;63796;53.136;14.882;2022-12-05T16:17:03;34.23;;;14.40;;
75209;SDS011;63796;53.136;14.882;2022-12-05T16:19:32;34.83;;;14.63;;
75209;SDS011;63796;53.136;14.882;2022-12-05T16:22:01;33.70;;;15.00;;
75209;SDS011;63796;53.136;14.882;2022-12-05T16:24:39;34.78;;;15.45;;
75209;SDS011;63796;53.136;14.882;2022-12-05T16:27:17;38.75;;;15.40;;
75209;SDS011;63796;53.136;14.882;2022-12-05T16:30:06;35.77;;;16.03;;
75209;SDS011;63796;53.136;14.882;2022-12-05T16:32:41;37.30;;;15.55;;
75209;SDS011;63796;53.136;14.882;2022-12-05T16:38:13;31.33;;;13.55;;
75209;SDS011;63796;53.136;14.882;2022-12-05T16:43:26;33.23;;;16.27;;
75209;SDS011;63796;53.136;14.882;2022-12-05T16:49:13;37.08;;;16.12;;
75209;SDS011;63796;53.136;14.882;2022-12-05T16:51:58;38.20;;;16.50;;
75209;SDS011;63796;53.136;14.882;2022-12-05T16:54:25;36.68;;;16.10;;
75209;SDS011;63796;53.136;14.882;2022-12-05T16:56:52;34.87;;;15.77;;
75209;SDS011;63796;53.136;14.882;2022-12-05T16:59:39;34.63;;;15.50;;
75209;SDS011;63796;53.136;14.882;2022-12-05T17:01:58;36.10;;;15.80;;
75209;SDS011;63796;53.136;14.882;2022-12-05T17:04:27;42.53;;;15.63;;
75209;SDS011;63796;53.136;14.882;2022-12-05T17:06:54;37.30;;;16.48;;
75209;SDS011;63796;53.136;14.882;2022-12-05T17:09:22;39.03;;;17.07;;
75209;SDS011;63796;53.136;14.882;2022-12-05T17:11:49;44.85;;;18.32;;
75209;SDS011;63796;53.136;14.882;2022-12-05T17:14:21;44.27;;;17.35;;
75209;SDS011;63796;53.136;14.882;2022-12-05T17:16:48;38.50;;;18.23;;
75209;SDS011;63796;53.136;14.882;2022-12-05T17:19:15;43.17;;;17.65;;
75209;SDS011;63796;53.136;14.882;2022-12-05T17:21:42;47.73;;;18.63;;
75209;SDS011;63796;53.136;14.882;2022-12-05T17:24:16;46.65;;;19.10;;
75209;SDS011;63796;53.136;14.882;2022-12-05T17:26:44;51.45;;;21.90;;
75209;SDS011;63796;53.136;14.882;2022-12-05T17:29:12;44.05;;;18.62;;
75209;SDS011;63796;53.136;14.882;2022-12-05T17:31:39;46.48;;;18.70;;
75209;SDS011;63796;53.136;14.882;2022-12-05T17:34:11;47.67;;;18.13;;
75209;SDS011;63796;53.136;14.882;2022-12-05T17:36:43;48.20;;;19.15;;
75209;SDS011;63796;53.136;14.882;2022-12-05T17:39:10;47.65;;;18.67;;
75209;SDS011;63796;53.136;14.882;2022-12-05T17:41:38;53.55;;;21.02;;
75209;SDS011;63796;53.136;14.882;2022-12-05T17:44:05;43.08;;;18.37;;
75209;SDS011;63796;53.136;14.882;2022-12-05T17:46:32;48.53;;;19.77;;
75209;SDS011;63796;53.136;14.882;2022-12-05T17:48:59;50.95;;;20.12;;
75209;SDS011;63796;53.136;14.882;2022-12-05T17:51:26;48.55;;;18.80;;
75209;SDS011;63796;53.136;14.882;2022-12-05T17:53:53;53.68;;;21.50;;
75209;SDS011;63796;53.136;14.882;2022-12-05T17:56:21;54.48;;;21.42;;
75209;SDS011;63796;53.136;14.882;2022-12-05T17:58:48;55.97;;;21.37;;
75209;SDS011;63796;53.136;14.882;2022-12-05T18:01:16;66.22;;;24.50;;